createdAt,value
2023-04-11T00:00:16.530Z,100.00
2023-04-11T00:02:45.042Z,100.00
2023-04-11T00:05:12.533Z,100.00
2023-04-11T00:07:39.912Z,100.00
2023-04-11T00:10:08.201Z,100.00
2023-04-11T00:12:35.687Z,100.00
2023-04-11T00:15:03.748Z,100.00
2023-04-11T00:17:31.677Z,100.00
2023-04-11T00:20:01.810Z,100.00
2023-04-11T00:22:30.681Z,100.00
2023-04-11T00:24:58.127Z,100.00
2023-04-11T00:27:25.628Z,100.00
2023-04-11T00:29:54.782Z,100.00
2023-04-11T00:32:22.203Z,100.00
2023-04-11T00:34:49.619Z,100.00
2023-04-11T00:37:17.748Z,100.00
2023-04-11T00:39:45.644Z,100.00
2023-04-11T00:42:12.990Z,100.00
2023-04-11T00:44:40.441Z,100.00
2023-04-11T00:47:08.248Z,100.00
2023-04-11T00:49:36.631Z,100.00
2023-04-11T00:52:04.676Z,100.00
2023-04-11T00:54:32.265Z,100.00
2023-04-11T00:57:03.798Z,100.00
2023-04-11T00:59:32.180Z,100.00
2023-04-11T01:02:00.172Z,100.00
2023-04-11T01:04:29.377Z,100.00
2023-04-11T01:06:59.826Z,100.00
2023-04-11T01:09:28.270Z,100.00
2023-04-11T01:11:56.342Z,100.00
2023-04-11T01:14:25.411Z,100.00
2023-04-11T01:16:53.162Z,100.00
2023-04-11T01:19:21.119Z,100.00
2023-04-11T01:21:52.817Z,100.00
2023-04-11T01:24:20.491Z,100.00
2023-04-11T01:26:47.894Z,100.00
2023-04-11T01:29:15.319Z,100.00
2023-04-11T01:31:42.821Z,100.00
2023-04-11T01:34:12.830Z,100.00
2023-04-11T01:36:40.927Z,100.00
2023-04-11T01:39:08.519Z,100.00
2023-04-11T01:41:36.634Z,100.00
2023-04-11T01:44:05.003Z,100.00
2023-04-11T01:46:32.767Z,100.00
2023-04-11T01:49:00.995Z,100.00
2023-04-11T01:51:28.445Z,100.00
2023-04-11T01:53:55.875Z,100.00
2023-04-11T01:56:23.387Z,100.00
2023-04-11T01:58:50.926Z,100.00
2023-04-11T02:01:19.281Z,100.00
2023-04-11T02:03:47.155Z,100.00
2023-04-11T02:06:16.703Z,100.00
2023-04-11T02:08:44.563Z,100.00
2023-04-11T02:11:12.329Z,100.00
2023-04-11T02:13:39.727Z,100.00
2023-04-11T02:16:15.338Z,100.00
2023-04-11T02:18:43.890Z,100.00
2023-04-11T02:21:11.623Z,100.00
2023-04-11T02:23:39.076Z,100.00
2023-04-11T02:26:06.468Z,100.00
2023-04-11T02:28:34.109Z,100.00
2023-04-11T02:31:03.413Z,100.00
2023-04-11T02:33:30.903Z,100.00
2023-04-11T02:35:58.307Z,100.00
2023-04-11T02:38:25.839Z,100.00
2023-04-11T02:40:53.300Z,100.00
2023-04-11T02:43:20.782Z,100.00
2023-04-11T02:45:48.400Z,100.00
2023-04-11T02:48:16.279Z,100.00
2023-04-11T02:50:43.740Z,100.00
2023-04-11T02:53:11.321Z,100.00
2023-04-11T02:55:38.707Z,100.00
2023-04-11T02:58:06.178Z,100.00
2023-04-11T03:00:33.619Z,100.00
2023-04-11T03:03:02.582Z,100.00
2023-04-11T03:05:30.378Z,100.00
2023-04-11T03:07:58.914Z,100.00
2023-04-11T03:10:26.299Z,100.00
2023-04-11T03:12:53.715Z,100.00
2023-04-11T03:15:21.185Z,100.00
2023-04-11T03:17:48.797Z,100.00
2023-04-11T03:20:19.529Z,100.00
2023-04-11T03:22:47.247Z,100.00
2023-04-11T03:25:14.677Z,100.00
2023-04-11T03:27:42.228Z,100.00
2023-04-11T03:30:09.837Z,100.00
2023-04-11T03:32:37.271Z,100.00
2023-04-11T03:35:04.747Z,100.00
2023-04-11T03:37:32.136Z,100.00
2023-04-11T03:39:59.506Z,100.00
2023-04-11T03:42:26.953Z,100.00
2023-04-11T03:44:54.383Z,100.00
2023-04-11T03:47:21.807Z,100.00
2023-04-11T03:49:49.286Z,100.00
2023-04-11T03:52:17.548Z,100.00
2023-04-11T03:54:47.080Z,100.00
2023-04-11T03:57:15.505Z,100.00
2023-04-11T03:59:42.853Z,100.00
2023-04-11T04:02:10.363Z,100.00
2023-04-11T04:04:38.968Z,100.00
2023-04-11T04:07:06.771Z,100.00
2023-04-11T04:09:34.259Z,100.00
2023-04-11T04:12:01.754Z,100.00
2023-04-11T04:14:29.161Z,100.00
2023-04-11T04:16:56.588Z,100.00
2023-04-11T04:19:24.055Z,100.00
2023-04-11T04:21:51.472Z,100.00
2023-04-11T04:24:18.855Z,100.00
2023-04-11T04:26:49.970Z,100.00
2023-04-11T04:29:18.209Z,100.00
2023-04-11T04:31:52.979Z,100.00
2023-04-11T04:34:21.753Z,100.00
2023-04-11T04:36:49.395Z,100.00
2023-04-11T04:39:18.432Z,100.00
2023-04-11T04:41:48.754Z,100.00
2023-04-11T04:44:17.393Z,100.00
2023-04-11T04:46:44.892Z,100.00
2023-04-11T04:49:12.396Z,100.00
2023-04-11T04:51:40.577Z,100.00
2023-04-11T04:54:07.985Z,100.00
2023-04-11T04:56:35.611Z,100.00
2023-04-11T04:59:02.974Z,100.00
2023-04-11T05:01:33.056Z,100.00
2023-04-11T05:04:02.075Z,100.00
2023-04-11T05:06:31.511Z,100.00
2023-04-11T05:09:00.050Z,100.00
2023-04-11T05:11:28.294Z,100.00
2023-04-11T05:13:56.019Z,100.00
2023-04-11T05:16:23.677Z,100.00
2023-04-11T05:18:51.116Z,100.00
2023-04-11T05:21:18.612Z,100.00
2023-04-11T05:23:46.014Z,100.00
2023-04-11T05:26:13.427Z,100.00
2023-04-11T05:28:41.521Z,100.00
2023-04-11T05:31:09.921Z,100.00
2023-04-11T05:33:38.433Z,100.00
2023-04-11T05:36:06.839Z,100.00
2023-04-11T05:38:34.332Z,100.00
2023-04-11T05:41:01.957Z,100.00
2023-04-11T05:43:29.571Z,100.00
2023-04-11T05:45:58.017Z,100.00
2023-04-11T05:48:25.403Z,100.00
2023-04-11T05:50:53.196Z,100.00
2023-04-11T05:53:21.141Z,100.00
2023-04-11T05:55:48.623Z,100.00
2023-04-11T05:58:16.130Z,100.00
2023-04-11T06:00:43.635Z,100.00
2023-04-11T06:03:11.334Z,100.00
2023-04-11T06:05:39.287Z,100.00
2023-04-11T06:08:08.085Z,100.00
2023-04-11T06:10:35.784Z,100.00
2023-04-11T06:13:03.240Z,100.00
2023-04-11T06:15:30.746Z,100.00
2023-04-11T06:17:58.205Z,100.00
2023-04-11T06:20:25.828Z,100.00
2023-04-11T06:22:53.239Z,100.00
2023-04-11T06:25:21.805Z,100.00
2023-04-11T06:27:49.441Z,100.00
2023-04-11T06:30:16.881Z,100.00
2023-04-11T06:32:44.429Z,100.00
2023-04-11T06:35:11.913Z,100.00
2023-04-11T06:37:39.409Z,100.00
2023-04-11T06:40:07.210Z,100.00
2023-04-11T06:42:34.750Z,100.00
2023-04-11T06:45:02.227Z,100.00
2023-04-11T06:47:29.699Z,100.00
2023-04-11T06:49:57.313Z,100.00
2023-04-11T06:52:26.450Z,100.00
2023-04-11T06:54:54.988Z,100.00
2023-04-11T06:57:22.969Z,100.00
2023-04-11T06:59:50.552Z,100.00
2023-04-11T07:02:18.228Z,100.00
2023-04-11T07:04:45.770Z,100.00
2023-04-11T07:07:13.186Z,100.00
2023-04-11T07:09:40.947Z,100.00
2023-04-11T07:12:08.360Z,100.00
2023-04-11T07:14:35.937Z,100.00
2023-04-11T07:17:03.367Z,100.00
2023-04-11T07:19:30.824Z,100.00
2023-04-11T07:21:58.451Z,100.00
2023-04-11T07:24:26.044Z,100.00
2023-04-11T07:26:54.378Z,100.00
2023-04-11T07:29:21.837Z,100.00
2023-04-11T07:31:49.756Z,100.00
2023-04-11T07:34:17.226Z,100.00
2023-04-11T07:36:44.714Z,100.00
2023-04-11T07:39:14.044Z,100.00
2023-04-11T07:41:41.548Z,100.00
2023-04-11T07:44:09.656Z,100.00
2023-04-11T07:46:37.183Z,100.00
2023-04-11T07:49:04.678Z,100.00
2023-04-11T07:51:33.129Z,100.00
2023-04-11T07:54:00.584Z,100.00
2023-04-11T07:56:28.154Z,100.00
2023-04-11T07:58:57.091Z,100.00
2023-04-11T08:01:25.530Z,100.00
2023-04-11T08:03:54.854Z,100.00
2023-04-11T08:06:22.710Z,100.00
2023-04-11T08:08:50.408Z,100.00
2023-04-11T08:11:17.920Z,100.00
2023-04-11T08:13:45.409Z,100.00
2023-04-11T08:16:14.904Z,100.00
2023-04-11T08:18:43.028Z,100.00
2023-04-11T08:21:11.983Z,100.00
2023-04-11T08:23:42.425Z,100.00
2023-04-11T08:26:11.943Z,100.00
2023-04-11T08:28:41.873Z,100.00
2023-04-11T08:31:10.777Z,100.00
2023-04-11T08:33:40.163Z,100.00
2023-04-11T08:36:10.129Z,100.00
2023-04-11T08:38:38.645Z,100.00
2023-04-11T08:41:06.325Z,100.00
2023-04-11T08:43:40.929Z,100.00
2023-04-11T08:46:08.912Z,99.91
2023-04-11T08:48:36.507Z,98.77
2023-04-11T08:51:03.992Z,94.08
2023-04-11T08:53:32.067Z,90.66
2023-04-11T08:55:59.941Z,86.09
2023-04-11T08:58:27.479Z,82.81
2023-04-11T09:00:55.021Z,78.68
2023-04-11T09:03:22.580Z,79.89
2023-04-11T09:05:50.124Z,80.09
2023-04-11T09:08:18.119Z,85.04
2023-04-11T09:10:46.331Z,80.03
2023-04-11T09:13:27.003Z,79.88
2023-04-11T09:16:06.705Z,76.45
2023-04-11T09:18:34.986Z,66.87
2023-04-11T09:21:05.167Z,69.04
2023-04-11T09:23:32.639Z,67.94
2023-04-11T09:26:00.057Z,67.97
2023-04-11T09:28:27.588Z,67.92
2023-04-11T09:30:59.042Z,71.90
2023-04-11T09:33:28.329Z,73.25
2023-04-11T09:35:56.980Z,73.54
2023-04-11T09:38:35.576Z,71.86
2023-04-11T09:41:03.564Z,74.24
2023-04-11T09:43:51.477Z,70.13
2023-04-11T09:46:20.907Z,66.82
2023-04-11T09:48:49.518Z,68.42
2023-04-11T09:53:40.406Z,62.74
2023-04-11T09:54:06.059Z,63.85
2023-04-11T09:56:35.217Z,61.68
2023-04-11T09:59:03.646Z,61.72
2023-04-11T10:01:31.039Z,62.58
2023-04-11T10:03:58.811Z,59.37
2023-04-11T10:06:34.788Z,57.56
2023-04-11T10:09:10.938Z,56.60
2023-04-11T10:11:41.256Z,53.35
2023-04-11T10:14:08.665Z,50.46
2023-04-11T10:16:36.169Z,52.74
2023-04-11T10:19:04.407Z,49.82
2023-04-11T10:21:32.673Z,50.64
2023-04-11T10:24:17.465Z,46.53
2023-04-11T10:26:57.596Z,48.15
2023-04-11T10:29:33.174Z,49.61
2023-04-11T10:32:13.286Z,51.25
2023-04-11T10:34:41.986Z,50.99
2023-04-11T10:37:10.803Z,47.80
2023-04-11T10:40:10.014Z,47.41
2023-04-11T10:42:42.099Z,49.58
2023-04-11T10:45:39.880Z,49.85
2023-04-11T10:48:10.394Z,49.97
2023-04-11T10:50:40.845Z,48.18
2023-04-11T10:53:09.867Z,48.37
2023-04-11T10:55:50.180Z,51.27
2023-04-11T10:58:19.812Z,48.14
2023-04-11T11:00:50.687Z,45.93
2023-04-11T11:03:19.400Z,50.31
2023-04-11T11:05:47.177Z,46.06
2023-04-11T11:08:14.821Z,46.99
2023-04-11T11:10:46.419Z,47.72
2023-04-11T11:13:16.178Z,47.70
2023-04-11T11:15:50.449Z,45.31
2023-04-11T11:18:19.097Z,45.28
2023-04-11T11:20:46.541Z,44.70
2023-04-11T11:23:14.032Z,45.58
2023-04-11T11:25:41.936Z,48.42
2023-04-11T11:28:09.968Z,48.38
2023-04-11T11:30:38.046Z,43.45
2023-04-11T11:33:15.852Z,43.81
2023-04-11T11:35:44.498Z,41.65
2023-04-11T11:38:12.049Z,41.33
2023-04-11T11:40:39.584Z,41.25
2023-04-11T11:43:08.229Z,40.59
2023-04-11T11:45:35.810Z,39.71
2023-04-11T11:48:03.333Z,37.91
2023-04-11T11:50:32.009Z,37.70
2023-04-11T11:53:12.796Z,39.68
2023-04-11T11:55:40.381Z,38.31
2023-04-11T11:58:07.956Z,38.42
2023-04-11T12:00:40.283Z,37.04
2023-04-11T12:03:09.957Z,35.25
2023-04-11T12:05:37.923Z,37.69
2023-04-11T12:08:07.781Z,36.79
2023-04-11T12:10:44.476Z,36.11
2023-04-11T12:13:32.138Z,37.77
2023-04-11T12:16:02.414Z,38.76
2023-04-11T12:18:29.825Z,37.50
2023-04-11T12:20:58.519Z,36.64
2023-04-11T12:23:26.415Z,36.42
2023-04-11T12:25:53.925Z,37.08
2023-04-11T12:28:21.556Z,36.11
2023-04-11T12:30:49.010Z,37.69
2023-04-11T12:33:17.214Z,36.01
2023-04-11T12:35:44.656Z,36.26
2023-04-11T12:38:14.877Z,36.68
2023-04-11T12:40:45.061Z,37.99
2023-04-11T12:43:12.537Z,39.36
2023-04-11T12:45:39.953Z,38.77
2023-04-11T12:48:07.518Z,38.32
2023-04-11T12:50:35.213Z,37.49
2023-04-11T12:53:02.725Z,36.87
2023-04-11T12:55:30.311Z,36.23
2023-04-11T12:57:57.738Z,33.61
2023-04-11T13:00:25.363Z,35.09
2023-04-11T13:02:53.504Z,36.02
2023-04-11T13:05:22.530Z,36.07
2023-04-11T13:07:50.176Z,36.28
2023-04-11T13:10:17.776Z,35.99
2023-04-11T13:12:46.035Z,34.60
2023-04-11T13:15:14.256Z,35.96
2023-04-11T13:17:41.871Z,36.38
2023-04-11T13:20:10.864Z,34.67
2023-04-11T13:22:38.836Z,34.45
2023-04-11T13:25:06.840Z,35.76
2023-04-11T13:27:34.320Z,35.26
2023-04-11T13:30:02.034Z,36.07
2023-04-11T13:32:29.516Z,35.07
2023-04-11T13:34:56.966Z,35.02
2023-04-11T13:37:24.404Z,35.62
2023-04-11T13:39:52.114Z,35.67
2023-04-11T13:42:21.823Z,35.10
2023-04-11T13:44:49.320Z,33.36
2023-04-11T13:47:16.806Z,33.69
2023-04-11T13:49:44.482Z,32.67
2023-04-11T13:52:11.891Z,32.80
2023-04-11T13:54:39.314Z,34.47
2023-04-11T13:57:09.529Z,34.11
2023-04-11T13:59:37.289Z,34.85
2023-04-11T14:02:04.880Z,36.09
2023-04-11T14:04:32.438Z,38.71
2023-04-11T14:07:00.071Z,37.56
2023-04-11T14:09:27.509Z,38.59
2023-04-11T14:11:55.148Z,38.71
2023-04-11T14:14:22.826Z,39.09
2023-04-11T14:16:50.390Z,38.67
2023-04-11T14:19:17.834Z,39.35
2023-04-11T14:21:45.667Z,40.35
2023-04-11T14:24:13.142Z,40.00
2023-04-11T14:26:40.632Z,40.96
2023-04-11T14:29:08.295Z,42.29
2023-04-11T14:31:36.389Z,42.03
2023-04-11T14:34:03.977Z,42.59
2023-04-11T14:36:32.032Z,42.43
2023-04-11T14:38:59.568Z,42.53
2023-04-11T14:41:26.973Z,43.20
2023-04-11T14:43:54.652Z,43.32
2023-04-11T14:46:22.345Z,43.75
2023-04-11T14:48:49.790Z,43.64
2023-04-11T14:51:17.206Z,43.08
2023-04-11T14:53:44.687Z,43.50
2023-04-11T14:56:12.187Z,44.42
2023-04-11T14:58:39.848Z,44.61
2023-04-11T15:01:07.951Z,44.24
2023-04-11T15:03:35.549Z,43.33
2023-04-11T15:06:03.606Z,44.90
2023-04-11T15:08:31.313Z,44.25
2023-04-11T15:10:58.778Z,44.43
2023-04-11T15:13:27.020Z,45.37
2023-04-11T15:15:54.478Z,46.87
2023-04-11T15:18:23.302Z,45.55
2023-04-11T15:20:50.873Z,45.01
2023-04-11T15:23:19.113Z,46.41
2023-04-11T15:25:56.753Z,45.69
2023-04-11T15:28:24.989Z,46.48
2023-04-11T15:30:53.235Z,46.31
2023-04-11T15:33:22.015Z,47.43
2023-04-11T15:35:49.473Z,49.02
2023-04-11T15:38:18.401Z,46.69
2023-04-11T15:40:46.412Z,46.82
2023-04-11T15:43:13.864Z,45.26
2023-04-11T15:45:44.060Z,44.15
2023-04-11T15:48:12.849Z,42.99
2023-04-11T15:50:40.868Z,42.89
2023-04-11T15:53:08.571Z,43.76
2023-04-11T15:55:39.172Z,42.79
2023-04-11T15:58:06.661Z,42.86
2023-04-11T16:00:36.328Z,43.70
2023-04-11T16:03:04.873Z,44.17
2023-04-11T16:05:36.734Z,44.72
2023-04-11T16:08:04.693Z,47.49
2023-04-11T16:10:32.801Z,47.92
2023-04-11T16:13:00.441Z,48.34
2023-04-11T16:15:27.784Z,49.40
2023-04-11T16:17:55.408Z,50.00
2023-04-11T16:20:22.838Z,49.84
2023-04-11T16:22:50.303Z,53.90
2023-04-11T16:25:20.917Z,54.93
2023-04-11T16:27:49.046Z,56.92
2023-04-11T16:30:16.900Z,57.41
2023-04-11T16:32:44.757Z,60.08
2023-04-11T16:35:12.325Z,62.02
2023-04-11T16:37:39.837Z,61.97
2023-04-11T16:40:11.257Z,63.19
2023-04-11T16:42:39.283Z,64.64
2023-04-11T16:45:07.659Z,62.69
2023-04-11T16:47:35.134Z,67.77
2023-04-11T16:50:02.718Z,65.62
2023-04-11T16:52:30.431Z,67.23
2023-04-11T16:54:57.896Z,67.81
2023-04-11T16:57:25.709Z,71.05
2023-04-11T16:59:53.153Z,70.99
2023-04-11T17:02:20.683Z,70.35
2023-04-11T17:04:48.232Z,73.13
2023-04-11T17:07:16.204Z,70.65
2023-04-11T17:09:43.855Z,70.63
2023-04-11T17:12:11.398Z,73.39
2023-04-11T17:14:38.854Z,75.37
2023-04-11T17:17:06.295Z,74.64
2023-04-11T17:19:33.838Z,77.07
2023-04-11T17:22:01.705Z,77.90
2023-04-11T17:24:29.078Z,78.26
2023-04-11T17:26:57.004Z,76.54
2023-04-11T17:29:24.700Z,78.07
2023-04-11T17:31:52.357Z,77.38
2023-04-11T17:34:19.737Z,80.11
2023-04-11T17:36:47.925Z,78.90
2023-04-11T17:39:17.880Z,79.01
2023-04-11T17:41:45.977Z,79.65
2023-04-11T17:44:13.798Z,81.11
2023-04-11T17:46:41.480Z,79.90
2023-04-11T17:49:09.031Z,81.55
2023-04-11T17:51:38.897Z,82.34
2023-04-11T17:54:10.391Z,82.66
2023-04-11T17:56:37.843Z,83.04
2023-04-11T17:59:05.325Z,82.70
2023-04-11T18:01:32.995Z,83.20
2023-04-11T18:04:01.799Z,84.97
2023-04-11T18:06:29.846Z,87.29
2023-04-11T18:08:57.349Z,85.91
2023-04-11T18:11:24.880Z,87.53
2023-04-11T18:13:52.368Z,87.00
2023-04-11T18:16:19.857Z,87.25
2023-04-11T18:18:48.122Z,86.48
2023-04-11T18:21:16.522Z,87.52
2023-04-11T18:23:44.070Z,88.40
2023-04-11T18:26:11.484Z,89.18
2023-04-11T18:28:38.887Z,90.41
2023-04-11T18:31:06.833Z,91.33
2023-04-11T18:33:37.490Z,90.57
2023-04-11T18:36:07.069Z,91.58
2023-04-11T18:38:34.540Z,91.84
2023-04-11T18:41:06.776Z,92.50
2023-04-11T18:43:35.078Z,93.89
2023-04-11T18:46:02.706Z,94.70
2023-04-11T18:48:31.639Z,95.81
2023-04-11T18:50:59.845Z,96.52
2023-04-11T18:53:29.894Z,97.22
2023-04-11T18:55:57.881Z,97.48
2023-04-11T18:58:27.007Z,97.70
2023-04-11T19:00:55.469Z,98.46
2023-04-11T19:03:24.192Z,99.51
2023-04-11T19:05:52.756Z,99.88
2023-04-11T19:08:20.409Z,100.00
2023-04-11T19:10:47.800Z,100.00
2023-04-11T19:13:15.471Z,100.00
2023-04-11T19:15:42.871Z,100.00
2023-04-11T19:18:11.239Z,100.00
2023-04-11T19:20:39.136Z,100.00
2023-04-11T19:23:06.700Z,100.00
2023-04-11T19:25:34.731Z,100.00
2023-04-11T19:28:02.131Z,100.00
2023-04-11T19:30:29.637Z,100.00
2023-04-11T19:32:58.711Z,100.00
2023-04-11T19:35:26.194Z,100.00
2023-04-11T19:37:53.923Z,100.00
2023-04-11T19:40:23.246Z,100.00
2023-04-11T19:42:51.219Z,100.00
2023-04-11T19:45:18.855Z,100.00
2023-04-11T19:47:46.520Z,100.00
2023-04-11T19:50:13.982Z,100.00
2023-04-11T19:52:41.818Z,100.00
2023-04-11T19:55:10.401Z,100.00
2023-04-11T19:57:38.761Z,100.00
2023-04-11T20:00:12.142Z,100.00
2023-04-11T20:02:41.268Z,100.00
2023-04-11T20:05:09.119Z,100.00
2023-04-11T20:07:36.535Z,100.00
2023-04-11T20:10:04.335Z,100.00
2023-04-11T20:12:31.731Z,100.00
2023-04-11T20:14:59.122Z,100.00
2023-04-11T20:17:26.621Z,100.00
2023-04-11T20:19:55.499Z,100.00
2023-04-11T20:22:23.270Z,100.00
2023-04-11T20:24:50.876Z,100.00
2023-04-11T20:27:18.640Z,100.00
2023-04-11T20:29:46.079Z,100.00
2023-04-11T20:32:13.498Z,100.00
2023-04-11T20:34:40.986Z,100.00
2023-04-11T20:37:09.011Z,100.00
2023-04-11T20:39:36.453Z,100.00
2023-04-11T20:42:04.220Z,100.00
2023-04-11T20:44:34.110Z,100.00
2023-04-11T20:47:01.512Z,100.00
2023-04-11T20:49:31.800Z,100.00
2023-04-11T20:52:00.043Z,100.00
2023-04-11T20:54:27.653Z,100.00
2023-04-11T20:56:55.782Z,100.00
2023-04-11T20:59:23.225Z,100.00
2023-04-11T21:01:50.763Z,100.00
2023-04-11T21:04:18.696Z,100.00
2023-04-11T21:06:46.462Z,100.00
2023-04-11T21:09:14.026Z,100.00
2023-04-11T21:11:41.411Z,100.00
2023-04-11T21:14:08.809Z,100.00
2023-04-11T21:16:36.220Z,100.00
2023-04-11T21:19:03.599Z,100.00
2023-04-11T21:21:31.082Z,100.00
2023-04-11T21:23:58.885Z,100.00
2023-04-11T21:26:27.129Z,100.00
2023-04-11T21:28:54.498Z,100.00
2023-04-11T21:31:21.897Z,100.00
2023-04-11T21:33:49.414Z,100.00
2023-04-11T21:36:16.909Z,100.00
2023-04-11T21:38:44.402Z,100.00
2023-04-11T21:41:11.765Z,100.00
2023-04-11T21:43:39.211Z,100.00
2023-04-11T21:46:06.813Z,100.00
2023-04-11T21:48:34.185Z,100.00
2023-04-11T21:51:03.347Z,100.00
2023-04-11T21:53:30.827Z,100.00
2023-04-11T21:55:58.294Z,100.00
2023-04-11T21:58:29.647Z,100.00
2023-04-11T22:00:57.622Z,100.00
2023-04-11T22:03:26.556Z,100.00
2023-04-11T22:05:54.308Z,100.00
2023-04-11T22:08:22.805Z,100.00
2023-04-11T22:10:50.916Z,100.00
2023-04-11T22:13:19.354Z,100.00
2023-04-11T22:15:48.759Z,100.00
2023-04-11T22:18:16.219Z,100.00
2023-04-11T22:20:44.527Z,100.00
2023-04-11T22:23:13.074Z,100.00
2023-04-11T22:25:44.250Z,100.00
2023-04-11T22:28:15.587Z,100.00
2023-04-11T22:30:44.095Z,100.00
2023-04-11T22:33:13.770Z,100.00
2023-04-11T22:35:43.916Z,100.00
2023-04-11T22:38:11.631Z,100.00
2023-04-11T22:40:40.351Z,100.00
2023-04-11T22:43:07.818Z,100.00
2023-04-11T22:45:35.939Z,100.00
2023-04-11T22:48:04.632Z,100.00
2023-04-11T22:50:37.258Z,100.00
2023-04-11T22:53:04.766Z,100.00
2023-04-11T22:55:34.427Z,100.00
2023-04-11T22:58:05.006Z,100.00
2023-04-11T23:00:38.131Z,100.00
2023-04-11T23:03:07.332Z,100.00
2023-04-11T23:05:35.331Z,100.00
2023-04-11T23:08:02.730Z,100.00
2023-04-11T23:10:30.144Z,100.00
2023-04-11T23:12:57.617Z,100.00
2023-04-11T23:15:25.033Z,100.00
2023-04-11T23:17:52.469Z,100.00
2023-04-11T23:20:22.165Z,100.00
2023-04-11T23:22:49.607Z,100.00
2023-04-11T23:25:16.989Z,100.00
2023-04-11T23:27:45.084Z,100.00
2023-04-11T23:30:12.987Z,100.00
2023-04-11T23:32:41.427Z,100.00
2023-04-11T23:35:09.119Z,100.00
2023-04-11T23:37:36.494Z,100.00
2023-04-11T23:40:10.490Z,100.00
2023-04-11T23:42:38.572Z,100.00
2023-04-11T23:45:07.184Z,100.00
2023-04-11T23:47:35.230Z,100.00
2023-04-11T23:50:03.663Z,100.00
2023-04-11T23:52:31.432Z,100.00
2023-04-11T23:54:58.942Z,100.00
2023-04-11T23:57:26.398Z,100.00
2023-04-11T23:59:53.841Z,100.00
